createdAt,value
2023-04-08T00:00:19.721Z,16.83
2023-04-08T00:01:53.101Z,17.67
2023-04-08T00:03:26.404Z,16.27
2023-04-08T00:04:59.459Z,17.90
2023-04-08T00:06:32.482Z,15.80
2023-04-08T00:08:07.367Z,14.98
2023-04-08T00:09:40.510Z,17.60
2023-04-08T00:12:46.935Z,17.63
2023-04-08T00:14:19.854Z,17.50
2023-04-08T00:15:51.852Z,17.15
2023-04-08T00:17:24.915Z,18.13
2023-04-08T00:18:57.919Z,21.25
2023-04-08T00:20:30.968Z,16.73
2023-04-08T00:22:04.016Z,18.55
2023-04-08T00:23:37.341Z,19.15
2023-04-08T00:25:10.682Z,17.77
2023-04-08T00:26:43.834Z,15.95
2023-04-08T00:28:16.798Z,16.63
2023-04-08T00:29:48.842Z,15.35
2023-04-08T00:31:21.997Z,17.15
2023-04-08T00:32:56.384Z,17.33
2023-04-08T00:34:29.362Z,16.58
2023-04-08T00:36:02.371Z,16.67
2023-04-08T00:37:35.613Z,15.75
2023-04-08T00:39:10.014Z,16.75
2023-04-08T00:40:42.932Z,18.05
2023-04-08T00:42:15.927Z,16.17
2023-04-08T00:43:47.972Z,18.17
2023-04-08T00:45:21.058Z,15.45
2023-04-08T00:46:53.185Z,18.45
2023-04-08T00:48:26.508Z,19.15
2023-04-08T00:51:32.650Z,17.27
2023-04-08T00:53:05.541Z,16.85
2023-04-08T00:54:38.964Z,19.73
2023-04-08T00:57:45.644Z,18.77
2023-04-08T00:59:19.590Z,17.70
2023-04-08T01:00:59.647Z,17.35
2023-04-08T01:02:37.435Z,17.58
2023-04-08T01:04:18.901Z,17.20
2023-04-08T01:06:00.164Z,16.48
2023-04-08T01:07:35.382Z,16.08
2023-04-08T01:09:08.510Z,18.23
2023-04-08T01:10:45.711Z,17.17
2023-04-08T01:12:23.479Z,18.58
2023-04-08T01:13:58.376Z,17.98
2023-04-08T01:15:35.447Z,15.93
2023-04-08T01:17:09.754Z,17.38
2023-04-08T01:18:44.560Z,19.48
2023-04-08T01:20:18.640Z,17.27
2023-04-08T01:21:52.350Z,16.85
2023-04-08T01:23:34.319Z,17.05
2023-04-08T01:25:12.768Z,16.85
2023-04-08T01:26:47.996Z,19.08
2023-04-08T01:28:22.369Z,17.25
2023-04-08T01:29:56.153Z,17.20
2023-04-08T01:31:30.566Z,15.55
2023-04-08T01:33:06.613Z,16.48
2023-04-08T01:34:40.963Z,17.90
2023-04-08T01:36:15.349Z,17.70
2023-04-08T01:37:50.142Z,18.83
2023-04-08T01:39:23.953Z,17.67
2023-04-08T01:40:57.956Z,16.58
2023-04-08T01:42:33.719Z,15.05
2023-04-08T01:44:07.514Z,15.77
2023-04-08T01:45:40.609Z,16.90
2023-04-08T01:47:15.206Z,16.25
2023-04-08T01:48:50.049Z,16.90
2023-04-08T01:50:24.775Z,16.73
2023-04-08T01:51:59.935Z,19.08
2023-04-08T01:53:33.155Z,15.77
2023-04-08T01:55:07.026Z,20.45
2023-04-08T01:56:43.661Z,15.80
2023-04-08T01:58:22.310Z,17.20
2023-04-08T02:00:01.341Z,18.58
2023-04-08T02:01:36.400Z,16.92
2023-04-08T02:03:13.374Z,16.92
2023-04-08T02:04:46.610Z,19.58
2023-04-08T02:06:19.750Z,21.48
2023-04-08T02:07:52.685Z,19.23
2023-04-08T02:09:25.418Z,15.30
2023-04-08T02:10:58.389Z,16.38
2023-04-08T02:12:30.562Z,18.77
2023-04-08T02:14:04.946Z,18.05
2023-04-08T02:15:43.781Z,16.88
2023-04-08T02:17:27.079Z,17.45
2023-04-08T02:19:04.725Z,17.38
2023-04-08T02:20:40.004Z,17.52
2023-04-08T02:22:18.942Z,17.45
2023-04-08T02:23:52.329Z,18.33
2023-04-08T02:27:01.325Z,16.80
2023-04-08T02:28:36.458Z,19.10
2023-04-08T02:30:12.994Z,16.15
2023-04-08T02:31:49.556Z,17.35
2023-04-08T02:33:24.410Z,17.45
2023-04-08T02:34:58.873Z,18.02
2023-04-08T02:36:34.051Z,17.48
2023-04-08T02:38:07.038Z,17.63
2023-04-08T02:39:40.107Z,18.67
2023-04-08T02:41:13.134Z,15.82
2023-04-08T02:42:45.298Z,17.63
2023-04-08T02:44:18.184Z,17.25
2023-04-08T02:45:52.573Z,16.73
2023-04-08T02:47:25.531Z,20.58
2023-04-08T02:48:58.505Z,17.05
2023-04-08T02:50:30.526Z,18.95
2023-04-08T02:52:03.570Z,17.98
2023-04-08T02:53:36.770Z,17.40
2023-04-08T02:55:10.050Z,18.95
2023-04-08T02:56:43.092Z,16.60
2023-04-08T02:58:15.519Z,21.05
2023-04-08T02:59:48.474Z,19.60
2023-04-08T03:01:22.878Z,19.02
2023-04-08T03:02:56.053Z,21.80
2023-04-08T03:04:29.157Z,18.27
2023-04-08T03:06:02.144Z,16.75
2023-04-08T03:07:35.277Z,17.88
2023-04-08T03:09:08.360Z,18.00
2023-04-08T03:10:41.527Z,19.45
2023-04-08T03:12:14.553Z,18.75
2023-04-08T03:13:47.695Z,18.73
2023-04-08T03:15:19.751Z,18.17
2023-04-08T03:16:54.141Z,18.48
2023-04-08T03:18:27.188Z,19.45
2023-04-08T03:20:00.106Z,18.70
2023-04-08T03:21:33.118Z,19.52
2023-04-08T03:23:05.060Z,20.40
2023-04-08T03:24:38.077Z,19.08
2023-04-08T03:26:11.099Z,19.17
2023-04-08T03:27:44.056Z,18.15
2023-04-08T03:29:17.088Z,18.40
2023-04-08T03:30:50.439Z,18.10
2023-04-08T03:32:23.970Z,19.52
2023-04-08T03:33:56.933Z,19.10
2023-04-08T03:35:30.049Z,17.77
2023-04-08T03:37:03.109Z,16.17
2023-04-08T03:38:36.112Z,17.40
2023-04-08T03:40:10.598Z,16.50
2023-04-08T03:41:43.719Z,17.13
2023-04-08T03:43:16.829Z,19.40
2023-04-08T03:44:48.793Z,19.27
2023-04-08T03:46:22.610Z,17.58
2023-04-08T03:47:57.124Z,16.95
2023-04-08T03:49:29.156Z,17.45
2023-04-08T03:51:02.128Z,20.00
2023-04-08T03:52:35.009Z,20.08
2023-04-08T03:54:08.040Z,19.90
2023-04-08T03:55:41.356Z,19.48
2023-04-08T03:58:46.228Z,18.92
2023-04-08T04:00:19.253Z,17.45
2023-04-08T04:01:53.653Z,19.55
2023-04-08T04:03:28.315Z,18.63
2023-04-08T04:05:01.501Z,21.08
2023-04-08T04:06:34.773Z,18.50
2023-04-08T04:08:09.295Z,18.27
2023-04-08T04:09:42.236Z,17.60
2023-04-08T04:11:15.253Z,19.83
2023-04-08T04:12:48.723Z,18.98
2023-04-08T04:14:21.616Z,18.73
2023-04-08T04:15:53.619Z,19.33
2023-04-08T04:17:27.118Z,17.35
2023-04-08T04:19:01.519Z,20.92
2023-04-08T04:20:34.585Z,20.02
2023-04-08T04:22:07.559Z,19.92
2023-04-08T04:23:40.509Z,18.02
2023-04-08T04:25:13.446Z,17.98
2023-04-08T04:26:46.314Z,18.83
2023-04-08T04:28:18.276Z,16.80
2023-04-08T04:29:51.152Z,17.63
2023-04-08T04:31:26.415Z,19.63
2023-04-08T04:32:59.617Z,19.70
2023-04-08T04:34:33.960Z,18.92
2023-04-08T04:36:06.942Z,20.27
2023-04-08T04:37:40.238Z,17.30
2023-04-08T04:40:46.085Z,17.33
2023-04-08T04:42:19.026Z,20.23
2023-04-08T04:43:51.896Z,19.02
2023-04-08T04:45:24.786Z,18.30
2023-04-08T04:46:57.720Z,16.75
2023-04-08T04:48:29.767Z,17.35
2023-04-08T04:50:04.151Z,17.15
2023-04-08T04:51:37.511Z,18.75
2023-04-08T04:54:43.131Z,18.05
2023-04-08T04:56:16.375Z,17.88
2023-04-08T04:57:49.502Z,19.40
2023-04-08T04:59:22.409Z,19.33
2023-04-08T05:00:55.482Z,19.50
2023-04-08T05:02:28.540Z,18.70
2023-04-08T05:04:01.512Z,19.98
2023-04-08T05:05:35.871Z,17.77
2023-04-08T05:07:08.848Z,17.98
2023-04-08T05:08:41.721Z,16.98
2023-04-08T05:10:14.683Z,18.02
2023-04-08T05:11:47.648Z,17.55
2023-04-08T05:13:20.702Z,17.58
2023-04-08T05:14:53.677Z,17.35
2023-04-08T05:16:27.076Z,16.95
2023-04-08T05:18:00.111Z,16.10
2023-04-08T05:19:33.088Z,17.17
2023-04-08T05:21:07.452Z,20.50
2023-04-08T05:22:40.565Z,17.38
2023-04-08T05:24:13.541Z,18.02
2023-04-08T05:25:46.575Z,16.30
2023-04-08T05:27:19.600Z,17.77
2023-04-08T05:28:53.315Z,15.52
2023-04-08T05:30:26.339Z,16.85
2023-04-08T05:31:59.979Z,16.95
2023-04-08T05:33:32.974Z,16.65
2023-04-08T05:35:06.720Z,18.15
2023-04-08T05:36:41.047Z,17.38
2023-04-08T05:38:14.012Z,15.80
2023-04-08T05:39:47.018Z,17.70
2023-04-08T05:41:20.046Z,17.88
2023-04-08T05:42:52.972Z,16.83
2023-04-08T05:44:26.078Z,16.38
2023-04-08T05:45:59.113Z,14.10
2023-04-08T05:47:32.128Z,15.27
2023-04-08T05:49:05.110Z,14.48
2023-04-08T05:50:38.183Z,14.25
2023-04-08T05:52:12.535Z,14.48
2023-04-08T05:53:46.822Z,13.77
2023-04-08T05:55:19.835Z,15.07
2023-04-08T05:56:52.775Z,15.65
2023-04-08T05:58:25.842Z,15.68
2023-04-08T05:59:58.788Z,15.73
2023-04-08T06:01:32.038Z,13.73
2023-04-08T06:03:05.400Z,14.13
2023-04-08T06:04:38.523Z,14.75
2023-04-08T06:06:12.692Z,13.13
2023-04-08T06:07:47.051Z,15.30
2023-04-08T06:09:19.957Z,12.32
2023-04-08T06:10:53.528Z,13.35
2023-04-08T06:12:26.621Z,13.27
2023-04-08T06:13:59.592Z,12.98
2023-04-08T06:15:32.663Z,11.68
2023-04-08T06:17:06.333Z,10.27
2023-04-08T06:18:39.472Z,11.73
2023-04-08T06:20:12.609Z,13.02
2023-04-08T06:21:45.545Z,13.32
2023-04-08T06:23:19.814Z,11.27
2023-04-08T06:24:52.769Z,13.88
2023-04-08T06:26:26.144Z,12.27
2023-04-08T06:29:31.362Z,10.13
2023-04-08T06:31:04.397Z,11.57
2023-04-08T06:32:37.719Z,10.73
2023-04-08T06:35:44.076Z,11.18
2023-04-08T06:37:17.192Z,11.02
2023-04-08T06:38:51.824Z,10.75
2023-04-08T06:40:24.951Z,13.38
2023-04-08T06:41:58.091Z,12.15
2023-04-08T06:43:31.400Z,10.45
2023-04-08T06:45:04.988Z,9.57
2023-04-08T06:46:37.913Z,11.00
2023-04-08T06:48:10.852Z,9.50
2023-04-08T06:49:43.777Z,13.40
2023-04-08T06:51:16.740Z,9.25
2023-04-08T06:52:49.700Z,10.10
2023-04-08T06:54:24.012Z,9.60
2023-04-08T06:55:57.007Z,10.23
2023-04-08T06:57:29.887Z,10.13
2023-04-08T06:59:03.161Z,10.60
2023-04-08T07:00:37.017Z,10.80
2023-04-08T07:02:09.944Z,11.02
2023-04-08T07:03:43.037Z,10.70
2023-04-08T07:05:16.590Z,11.75
2023-04-08T07:06:49.586Z,10.02
2023-04-08T07:08:22.463Z,11.63
2023-04-08T07:09:56.998Z,12.93
2023-04-08T07:11:29.894Z,12.77
2023-04-08T07:13:03.136Z,12.13
2023-04-08T07:14:36.241Z,11.70
2023-04-08T07:16:09.337Z,11.38
2023-04-08T07:17:42.594Z,12.00
2023-04-08T07:19:15.891Z,11.75
2023-04-08T07:22:24.452Z,11.50
2023-04-08T07:23:57.338Z,12.68
2023-04-08T07:25:31.628Z,10.48
2023-04-08T07:27:04.668Z,12.50
2023-04-08T07:28:37.681Z,12.10
2023-04-08T07:30:11.117Z,11.40
2023-04-08T07:33:17.315Z,9.93
2023-04-08T07:34:50.414Z,11.45
2023-04-08T07:36:23.328Z,11.40
2023-04-08T07:37:57.712Z,11.48
2023-04-08T07:39:31.097Z,10.85
2023-04-08T07:42:39.716Z,10.18
2023-04-08T07:44:17.124Z,10.63
2023-04-08T07:45:50.487Z,11.68
2023-04-08T07:47:23.453Z,11.40
2023-04-08T07:48:56.456Z,11.25
2023-04-08T07:50:29.344Z,10.15
2023-04-08T07:52:02.290Z,11.23
2023-04-08T07:53:36.053Z,9.63
2023-04-08T07:55:10.016Z,10.43
2023-04-08T07:56:44.847Z,11.15
2023-04-08T07:58:18.143Z,10.93
2023-04-08T07:59:51.144Z,11.35
2023-04-08T08:01:24.509Z,13.20
2023-04-08T08:02:57.639Z,11.18
2023-04-08T08:04:31.041Z,11.55
2023-04-08T08:06:04.105Z,12.65
2023-04-08T08:07:37.067Z,12.75
2023-04-08T08:09:10.068Z,12.48
2023-04-08T08:10:43.167Z,11.98
2023-04-08T08:12:17.471Z,11.70
2023-04-08T08:13:50.684Z,12.43
2023-04-08T08:16:56.795Z,10.30
2023-04-08T08:18:29.724Z,10.38
2023-04-08T08:20:04.443Z,11.13
2023-04-08T08:21:39.334Z,12.13
2023-04-08T08:23:12.339Z,12.65
2023-04-08T08:24:45.270Z,13.52
2023-04-08T08:26:18.226Z,13.43
2023-04-08T08:27:52.470Z,15.40
2023-04-08T08:29:25.599Z,13.40
2023-04-08T08:30:58.805Z,13.82
2023-04-08T08:32:31.857Z,14.30
2023-04-08T08:34:04.778Z,13.10
2023-04-08T08:35:37.807Z,15.07
2023-04-08T08:37:10.755Z,15.25
2023-04-08T08:38:43.690Z,13.25
2023-04-08T08:40:16.756Z,13.30
2023-04-08T08:41:49.963Z,14.07
2023-04-08T08:43:24.612Z,16.67
2023-04-08T08:44:57.611Z,14.68
2023-04-08T08:46:30.880Z,15.38
2023-04-08T08:48:04.639Z,14.82
2023-04-08T08:49:37.614Z,14.82
2023-04-08T08:51:10.916Z,13.30
2023-04-08T08:52:49.991Z,15.55
2023-04-08T08:54:23.169Z,14.30
2023-04-08T08:57:32.500Z,15.57
2023-04-08T08:59:06.760Z,16.60
2023-04-08T09:00:40.929Z,15.77
2023-04-08T09:02:27.757Z,12.95
2023-04-08T09:04:13.089Z,14.00
2023-04-08T09:05:50.336Z,13.82
2023-04-08T09:07:26.673Z,13.32
2023-04-08T09:08:59.611Z,12.48
2023-04-08T09:10:32.602Z,13.05
2023-04-08T09:12:06.252Z,12.95
2023-04-08T09:13:39.339Z,12.98
2023-04-08T09:15:13.886Z,13.75
2023-04-08T09:16:47.299Z,14.88
2023-04-08T09:18:23.588Z,14.55
2023-04-08T09:20:09.843Z,14.57
2023-04-08T09:21:43.546Z,14.05
2023-04-08T09:23:16.515Z,13.35
2023-04-08T09:24:49.488Z,13.02
2023-04-08T09:26:24.269Z,12.95
2023-04-08T09:27:57.412Z,12.55
2023-04-08T09:29:34.185Z,13.65
2023-04-08T09:31:22.007Z,13.48
2023-04-08T09:32:56.687Z,12.43
2023-04-08T09:34:32.542Z,12.15
2023-04-08T09:36:05.676Z,14.00
2023-04-08T09:37:38.718Z,13.00
2023-04-08T09:39:11.730Z,12.57
2023-04-08T09:40:46.555Z,12.02
2023-04-08T09:42:22.409Z,13.40
2023-04-08T09:43:56.453Z,12.48
2023-04-08T09:45:29.796Z,15.52
2023-04-08T09:48:47.830Z,13.52
2023-04-08T09:50:23.883Z,13.15
2023-04-08T09:52:09.096Z,12.25
2023-04-08T09:53:49.351Z,13.55
2023-04-08T09:55:24.274Z,13.85
2023-04-08T09:57:05.939Z,12.93
2023-04-08T09:58:43.900Z,12.93
2023-04-08T10:00:18.417Z,13.40
2023-04-08T10:01:54.933Z,12.40
2023-04-08T10:03:33.367Z,15.13
2023-04-08T10:05:08.845Z,12.73
2023-04-08T10:06:42.933Z,12.90
2023-04-08T10:08:16.760Z,13.57
2023-04-08T10:09:49.690Z,14.52
2023-04-08T10:11:23.056Z,13.38
2023-04-08T10:14:29.479Z,14.13
2023-04-08T10:17:56.595Z,14.55
2023-04-08T10:19:41.857Z,13.75
2023-04-08T10:21:34.414Z,15.32
2023-04-08T10:23:08.214Z,12.80
2023-04-08T10:24:42.645Z,14.52
2023-04-08T10:26:33.427Z,12.18
2023-04-08T10:28:27.285Z,13.90
2023-04-08T10:30:00.328Z,13.82
2023-04-08T10:31:41.553Z,14.57
2023-04-08T10:33:16.940Z,13.57
2023-04-08T10:34:55.663Z,12.45
2023-04-08T10:36:28.803Z,12.52
2023-04-08T10:38:02.647Z,13.63
2023-04-08T10:39:38.653Z,12.27
2023-04-08T10:41:13.968Z,13.60
2023-04-08T10:42:47.095Z,13.63
2023-04-08T10:44:20.822Z,15.55
2023-04-08T10:45:54.770Z,11.77
2023-04-08T10:47:28.602Z,11.32
2023-04-08T10:49:02.479Z,13.98
2023-04-08T10:50:37.626Z,14.00
2023-04-08T10:52:10.609Z,12.73
2023-04-08T10:53:44.211Z,12.40
2023-04-08T10:55:18.235Z,12.70
2023-04-08T10:56:52.511Z,13.73
2023-04-08T10:58:25.464Z,14.65
2023-04-08T10:59:58.396Z,12.88
2023-04-08T11:01:40.636Z,14.88
2023-04-08T11:03:15.542Z,15.07
2023-04-08T11:04:48.732Z,12.93
2023-04-08T11:06:23.411Z,12.40
2023-04-08T11:07:56.443Z,12.50
2023-04-08T11:09:29.389Z,12.25
2023-04-08T11:11:02.774Z,14.23
2023-04-08T11:14:09.043Z,14.38
2023-04-08T11:15:44.193Z,16.13
2023-04-08T11:17:23.358Z,16.77
2023-04-08T11:18:56.852Z,14.77
2023-04-08T11:20:30.010Z,12.68
2023-04-08T11:22:07.681Z,12.88
2023-04-08T11:23:49.202Z,13.65
2023-04-08T11:25:22.929Z,14.50
2023-04-08T11:28:29.699Z,13.90
2023-04-08T11:30:03.701Z,11.80
2023-04-08T11:31:37.759Z,13.05
2023-04-08T11:33:11.327Z,11.70
2023-04-08T11:34:44.368Z,12.50
2023-04-08T11:36:19.291Z,14.20
2023-04-08T11:37:54.365Z,11.20
2023-04-08T11:39:27.269Z,11.50
2023-04-08T11:41:01.442Z,11.25
2023-04-08T11:42:34.934Z,12.18
2023-04-08T11:44:08.518Z,11.55
2023-04-08T11:45:43.211Z,11.80
2023-04-08T11:47:16.157Z,12.45
2023-04-08T11:49:06.362Z,12.38
2023-04-08T11:50:39.407Z,11.35
2023-04-08T11:52:12.388Z,11.85
2023-04-08T11:53:49.198Z,12.57
2023-04-08T11:55:26.557Z,12.18
2023-04-08T11:57:01.044Z,10.70
2023-04-08T11:58:34.037Z,11.77
2023-04-08T12:00:09.698Z,12.10
2023-04-08T12:01:42.838Z,11.82
2023-04-08T12:03:16.508Z,13.40
2023-04-08T12:04:49.477Z,12.27
2023-04-08T12:06:23.297Z,10.50
2023-04-08T12:07:56.480Z,12.95
2023-04-08T12:09:30.880Z,11.23
2023-04-08T12:11:12.942Z,11.40
2023-04-08T12:12:52.451Z,10.40
2023-04-08T12:14:27.678Z,10.10
2023-04-08T12:16:01.428Z,12.18
2023-04-08T12:17:34.498Z,10.85
2023-04-08T12:19:07.550Z,11.32
2023-04-08T12:20:40.437Z,11.50
2023-04-08T12:22:13.407Z,11.00
2023-04-08T12:23:46.457Z,10.65
2023-04-08T12:25:21.431Z,11.98
2023-04-08T12:26:54.324Z,11.45
2023-04-08T12:28:27.272Z,12.68
2023-04-08T12:30:00.343Z,13.20
2023-04-08T12:31:33.263Z,12.05
2023-04-08T12:33:06.485Z,11.32
2023-04-08T12:36:13.657Z,10.75
2023-04-08T12:37:46.848Z,11.30
2023-04-08T12:39:19.688Z,10.45
2023-04-08T12:40:54.622Z,11.13
2023-04-08T12:42:27.995Z,12.20
2023-04-08T12:45:34.061Z,10.43
2023-04-08T12:47:07.370Z,11.00
2023-04-08T12:50:15.886Z,10.57
2023-04-08T12:51:48.805Z,9.15
2023-04-08T12:53:21.705Z,9.55
2023-04-08T12:54:54.615Z,9.82
2023-04-08T12:56:28.855Z,10.52
2023-04-08T12:58:01.788Z,10.43
2023-04-08T12:59:34.679Z,11.32
2023-04-08T13:01:07.805Z,9.93
2023-04-08T13:02:42.171Z,10.30
2023-04-08T13:04:15.348Z,9.63
2023-04-08T13:05:48.514Z,11.00
2023-04-08T13:07:21.424Z,9.90
2023-04-08T13:08:54.324Z,11.35
2023-04-08T13:10:27.607Z,9.68
2023-04-08T13:12:01.895Z,9.23
2023-04-08T13:13:34.854Z,9.88
2023-04-08T13:15:09.499Z,10.57
2023-04-08T13:16:42.643Z,9.63
2023-04-08T13:18:15.702Z,9.60
2023-04-08T13:19:50.038Z,10.05
2023-04-08T13:21:23.184Z,12.10
2023-04-08T13:22:56.140Z,10.35
2023-04-08T13:24:29.074Z,9.75
2023-04-08T13:26:02.317Z,10.07
2023-04-08T13:27:36.586Z,9.32
2023-04-08T13:29:09.496Z,9.80
2023-04-08T13:30:42.534Z,13.20
2023-04-08T13:32:15.881Z,10.48
2023-04-08T13:35:24.925Z,11.43
2023-04-08T13:36:57.841Z,9.45
2023-04-08T13:38:30.777Z,10.02
2023-04-08T13:40:03.822Z,8.85
2023-04-08T13:41:36.834Z,9.68
2023-04-08T13:43:11.046Z,10.50
2023-04-08T13:44:44.127Z,8.93
2023-04-08T13:46:18.055Z,8.27
2023-04-08T13:47:51.149Z,8.15
2023-04-08T13:49:24.082Z,8.80
2023-04-08T13:50:57.088Z,9.10
2023-04-08T13:52:30.046Z,9.32
2023-04-08T13:54:03.435Z,9.05
2023-04-08T13:57:09.185Z,11.57
2023-04-08T13:58:44.746Z,10.07
2023-04-08T14:00:20.830Z,10.32
2023-04-08T14:01:55.257Z,10.52
2023-04-08T14:03:28.720Z,7.72
2023-04-08T14:05:01.869Z,8.23
2023-04-08T14:06:33.775Z,10.55
2023-04-08T14:08:06.971Z,9.95
2023-04-08T14:09:39.984Z,10.18
2023-04-08T14:11:12.979Z,9.23
2023-04-08T14:12:46.636Z,9.90
2023-04-08T14:14:20.899Z,8.35
2023-04-08T14:15:56.138Z,8.15
2023-04-08T14:17:29.174Z,8.63
2023-04-08T14:19:02.138Z,8.07
2023-04-08T14:20:35.878Z,10.98
2023-04-08T14:22:08.808Z,8.35
2023-04-08T14:23:41.950Z,8.85
2023-04-08T14:25:14.957Z,7.07
2023-04-08T14:26:47.841Z,8.68
2023-04-08T14:28:20.840Z,9.30
2023-04-08T14:29:55.450Z,8.00
2023-04-08T14:31:28.420Z,8.77
2023-04-08T14:33:01.677Z,7.57
2023-04-08T14:36:08.020Z,8.18
2023-04-08T14:37:40.985Z,8.10
2023-04-08T14:39:13.999Z,7.50
2023-04-08T14:40:46.952Z,7.97
2023-04-08T14:42:20.222Z,8.60
2023-04-08T14:43:53.460Z,7.90
2023-04-08T14:45:27.783Z,8.13
2023-04-08T14:47:00.676Z,7.20
2023-04-08T14:48:33.731Z,8.10
2023-04-08T14:50:07.790Z,8.93
2023-04-08T14:51:40.966Z,7.93
2023-04-08T14:53:13.927Z,8.27
2023-04-08T14:54:48.143Z,9.32
2023-04-08T14:56:21.301Z,9.10
2023-04-08T14:57:54.271Z,9.20
2023-04-08T14:59:27.181Z,8.05
2023-04-08T15:01:01.466Z,9.02
2023-04-08T15:02:34.516Z,7.47
2023-04-08T15:04:07.534Z,8.18
2023-04-08T15:05:40.666Z,9.65
2023-04-08T15:07:13.631Z,8.25
2023-04-08T15:08:46.768Z,6.45
2023-04-08T15:10:19.660Z,6.38
2023-04-08T15:11:52.578Z,8.30
2023-04-08T15:13:25.663Z,9.05
2023-04-08T15:14:58.600Z,12.95
2023-04-08T15:16:33.149Z,9.77
2023-04-08T15:18:06.171Z,8.65
2023-04-08T15:19:39.200Z,8.45
2023-04-08T15:21:12.115Z,8.30
2023-04-08T15:22:45.366Z,8.25
2023-04-08T15:25:54.968Z,9.00
2023-04-08T15:27:27.947Z,9.32
2023-04-08T15:29:01.423Z,8.65
2023-04-08T15:30:35.765Z,6.32
2023-04-08T15:32:10.140Z,7.72
2023-04-08T15:33:45.976Z,7.13
2023-04-08T15:35:20.214Z,7.90
2023-04-08T15:36:53.144Z,6.30
2023-04-08T15:38:27.150Z,6.78
2023-04-08T15:40:00.431Z,7.22
2023-04-08T15:43:06.724Z,7.18
2023-04-08T15:44:39.658Z,7.30
2023-04-08T15:46:12.622Z,8.30
2023-04-08T15:47:47.136Z,7.25
2023-04-08T15:49:20.799Z,8.13
2023-04-08T15:50:53.750Z,7.82
2023-04-08T15:52:27.817Z,6.68
2023-04-08T15:54:01.305Z,9.00
2023-04-08T15:55:39.048Z,7.03
2023-04-08T15:57:11.979Z,7.85
2023-04-08T15:58:45.575Z,7.18
2023-04-08T16:00:18.587Z,7.85
2023-04-08T16:01:51.808Z,7.78
2023-04-08T16:06:33.328Z,8.52
2023-04-08T16:08:06.565Z,7.22
2023-04-08T16:09:39.546Z,6.68
2023-04-08T16:11:12.492Z,8.25
2023-04-08T16:12:46.256Z,7.30
2023-04-08T16:14:19.338Z,7.57
2023-04-08T16:15:52.307Z,9.23
2023-04-08T16:17:25.645Z,7.82
2023-04-08T16:20:33.208Z,9.00
2023-04-08T16:22:06.419Z,7.80
2023-04-08T16:23:39.321Z,7.13
2023-04-08T16:25:12.259Z,7.75
2023-04-08T16:26:45.152Z,7.32
2023-04-08T16:28:18.171Z,8.00
2023-04-08T16:29:51.104Z,6.50
2023-04-08T16:31:24.006Z,7.20
2023-04-08T16:32:56.982Z,6.57
2023-04-08T16:34:31.512Z,8.20
2023-04-08T16:36:05.056Z,7.57
2023-04-08T16:37:38.038Z,7.68
2023-04-08T16:39:11.039Z,7.97
2023-04-08T16:40:44.028Z,8.38
2023-04-08T16:42:18.248Z,8.73
2023-04-08T16:43:52.409Z,8.25
2023-04-08T16:45:26.098Z,8.00
2023-04-08T16:46:59.129Z,6.65
2023-04-08T16:48:32.509Z,7.70
2023-04-08T16:51:40.652Z,8.50
2023-04-08T16:53:13.649Z,8.30
2023-04-08T16:54:46.787Z,6.18
2023-04-08T16:56:19.810Z,7.10
2023-04-08T16:57:52.907Z,8.48
2023-04-08T16:59:25.977Z,8.77
2023-04-08T17:00:59.250Z,7.90
2023-04-08T17:02:32.233Z,7.88
2023-04-08T17:04:05.588Z,8.18
2023-04-08T17:07:14.577Z,7.63
2023-04-08T17:08:47.539Z,7.70
2023-04-08T17:10:20.979Z,7.43
2023-04-08T17:13:28.555Z,6.53
2023-04-08T17:15:01.508Z,6.90
2023-04-08T17:16:34.540Z,6.47
2023-04-08T17:18:07.653Z,7.20
2023-04-08T17:19:40.697Z,6.88
2023-04-08T17:21:15.555Z,7.78
2023-04-08T17:22:48.486Z,6.97
2023-04-08T17:24:21.445Z,6.55
2023-04-08T17:25:55.000Z,8.25
2023-04-08T17:27:28.066Z,7.82
2023-04-08T17:29:00.973Z,7.00
2023-04-08T17:30:33.928Z,6.15
2023-04-08T17:32:07.511Z,7.95
2023-04-08T17:33:40.445Z,7.05
2023-04-08T17:35:14.193Z,9.75
2023-04-08T17:36:48.505Z,8.15
2023-04-08T17:38:21.762Z,9.75
2023-04-08T17:39:54.703Z,8.75
2023-04-08T17:41:38.925Z,11.48
2023-04-08T17:43:13.121Z,9.65
2023-04-08T17:44:46.082Z,8.85
2023-04-08T17:46:19.036Z,8.35
2023-04-08T17:47:52.184Z,8.75
2023-04-08T17:49:25.431Z,8.13
2023-04-08T17:51:02.656Z,9.18
2023-04-08T17:52:36.961Z,8.32
2023-04-08T17:54:10.191Z,7.20
2023-04-08T17:55:43.113Z,10.75
2023-04-08T17:57:16.015Z,7.53
2023-04-08T17:58:49.118Z,8.23
2023-04-08T18:00:22.034Z,11.82
2023-04-08T18:01:55.188Z,10.95
2023-04-08T18:03:28.211Z,9.27
2023-04-08T18:05:01.858Z,8.80
2023-04-08T18:06:34.898Z,8.43
2023-04-08T18:08:09.280Z,8.55
2023-04-08T18:09:42.292Z,9.43
2023-04-08T18:11:15.518Z,10.02
2023-04-08T18:12:50.617Z,9.35
2023-04-08T18:14:25.480Z,8.15
2023-04-08T18:15:58.473Z,9.93
2023-04-08T18:17:31.414Z,9.63
2023-04-08T18:19:04.324Z,10.10
2023-04-08T18:20:37.723Z,8.60
2023-04-08T18:23:46.929Z,11.40
2023-04-08T18:25:22.360Z,10.60
2023-04-08T18:27:04.028Z,10.63
2023-04-08T18:28:37.845Z,10.68
2023-04-08T18:30:11.450Z,12.20
2023-04-08T18:31:44.656Z,11.20
2023-04-08T18:33:17.587Z,11.50
2023-04-08T18:34:52.490Z,10.43
2023-04-08T18:36:26.538Z,10.65
2023-04-08T18:37:59.517Z,10.95
2023-04-08T18:39:33.846Z,10.15
2023-04-08T18:41:07.426Z,11.15
2023-04-08T18:42:40.703Z,10.23
2023-04-08T18:44:13.748Z,11.85
2023-04-08T18:45:46.725Z,12.20
2023-04-08T18:47:20.093Z,9.25
2023-04-08T18:50:25.823Z,10.50
2023-04-08T18:52:03.016Z,11.88
2023-04-08T18:53:36.390Z,11.18
2023-04-08T18:55:10.863Z,11.75
2023-04-08T18:56:43.803Z,13.98
2023-04-08T18:58:16.812Z,12.35
2023-04-08T18:59:49.779Z,10.77
2023-04-08T19:01:22.876Z,11.00
2023-04-08T19:02:56.385Z,13.07
2023-04-08T19:04:29.559Z,12.50
2023-04-08T19:06:06.642Z,10.85
2023-04-08T19:07:39.568Z,10.60
2023-04-08T19:09:12.839Z,11.57
2023-04-08T19:10:47.098Z,14.70
2023-04-08T19:12:20.608Z,13.50
2023-04-08T19:13:53.543Z,13.60
2023-04-08T19:15:26.775Z,11.35
2023-04-08T19:16:59.693Z,12.20
2023-04-08T19:18:32.682Z,12.18
2023-04-08T19:20:06.518Z,11.52
2023-04-08T19:21:40.335Z,12.10
2023-04-08T19:23:13.402Z,11.98
2023-04-08T19:24:46.335Z,13.63
2023-04-08T19:26:20.637Z,11.48
2023-04-08T19:27:53.579Z,12.10
2023-04-08T19:29:29.655Z,12.93
2023-04-08T19:31:02.741Z,12.98
2023-04-08T19:32:36.320Z,13.18
2023-04-08T19:34:09.257Z,13.60
2023-04-08T19:35:42.462Z,13.85
2023-04-08T19:37:15.369Z,12.90
2023-04-08T19:38:48.310Z,11.25
2023-04-08T19:40:21.423Z,10.35
2023-04-08T19:41:55.748Z,12.57
2023-04-08T19:43:29.209Z,13.80
2023-04-08T19:45:02.312Z,13.38
2023-04-08T19:46:35.173Z,12.95
2023-04-08T19:48:08.590Z,13.43
2023-04-08T19:51:17.008Z,13.00
2023-04-08T19:52:49.904Z,12.13
2023-04-08T19:54:22.954Z,13.68
2023-04-08T19:56:01.393Z,13.25
2023-04-08T19:57:36.034Z,13.30
2023-04-08T19:59:08.938Z,12.63
2023-04-08T20:00:41.917Z,13.25
2023-04-08T20:02:15.063Z,13.05
2023-04-08T20:03:50.422Z,14.38
2023-04-08T20:05:23.647Z,13.13
2023-04-08T20:06:56.676Z,14.05
2023-04-08T20:08:28.773Z,12.73
2023-04-08T20:10:01.704Z,12.38
2023-04-08T20:11:34.790Z,13.50
2023-04-08T20:13:09.068Z,13.55
2023-04-08T20:14:44.082Z,14.38
2023-04-08T20:16:17.132Z,12.85
2023-04-08T20:17:50.096Z,14.82
2023-04-08T20:19:23.040Z,13.13
2023-04-08T20:20:56.594Z,11.70
2023-04-08T20:22:29.525Z,12.68
2023-04-08T20:24:02.463Z,12.55
2023-04-08T20:25:35.676Z,12.95
2023-04-08T20:27:08.566Z,13.55
2023-04-08T20:28:44.613Z,11.60
2023-04-08T20:30:18.368Z,13.13
2023-04-08T20:31:51.791Z,11.60
2023-04-08T20:33:25.640Z,12.80
2023-04-08T20:34:59.712Z,11.88
2023-04-08T20:36:32.724Z,11.00
2023-04-08T20:38:06.287Z,11.20
2023-04-08T20:39:39.239Z,12.70
2023-04-08T20:41:12.126Z,13.73
2023-04-08T20:42:45.013Z,10.38
2023-04-08T20:44:19.285Z,11.30
2023-04-08T20:45:52.172Z,12.23
2023-04-08T20:47:25.752Z,12.55
2023-04-08T20:48:58.691Z,12.20
2023-04-08T20:50:31.650Z,11.80
2023-04-08T20:52:04.683Z,13.93
2023-04-08T20:53:37.697Z,12.50
2023-04-08T20:55:11.109Z,12.13
2023-04-08T20:58:18.154Z,11.90
2023-04-08T20:59:52.439Z,11.75
2023-04-08T21:01:25.837Z,11.68
2023-04-08T21:02:59.522Z,11.90
2023-04-08T21:04:32.540Z,12.40
2023-04-08T21:06:05.792Z,10.55
2023-04-08T21:07:44.139Z,13.38
2023-04-08T21:09:17.141Z,13.25
2023-04-08T21:10:50.066Z,14.95
2023-04-08T21:12:23.017Z,13.02
2023-04-08T21:13:56.352Z,10.93
2023-04-08T21:17:03.460Z,12.82
2023-04-08T21:18:39.723Z,12.30